sensor_id;sensor_type;location;lat;lon;timestamp;P1;durP1;ratioP1;P2;durP2;ratioP2
77061;SDS011;65989;51.686;5.138;2023-08-01T00:00:06;11.80;;;4.33;;
77061;SDS011;65989;51.686;5.138;2023-08-01T00:02:33;13.00;;;4.28;;
77061;SDS011;65989;51.686;5.138;2023-08-01T00:04:58;12.33;;;4.60;;
77061;SDS011;65989;51.686;5.138;2023-08-01T00:07:24;10.03;;;4.83;;
77061;SDS011;65989;51.686;5.138;2023-08-01T00:09:50;8.95;;;4.25;;
77061;SDS011;65989;51.686;5.138;2023-08-01T00:12:15;10.77;;;4.30;;
77061;SDS011;65989;51.686;5.138;2023-08-01T00:14:40;13.50;;;4.33;;
77061;SDS011;65989;51.686;5.138;2023-08-01T00:17:06;13.20;;;4.43;;
77061;SDS011;65989;51.686;5.138;2023-08-01T00:19:31;10.57;;;4.43;;
77061;SDS011;65989;51.686;5.138;2023-08-01T00:21:56;12.23;;;4.27;;
77061;SDS011;65989;51.686;5.138;2023-08-01T00:24:21;10.37;;;4.33;;
77061;SDS011;65989;51.686;5.138;2023-08-01T00:26:47;11.90;;;4.40;;
77061;SDS011;65989;51.686;5.138;2023-08-01T00:29:12;10.77;;;4.53;;
77061;SDS011;65989;51.686;5.138;2023-08-01T00:31:38;12.53;;;4.90;;
77061;SDS011;65989;51.686;5.138;2023-08-01T00:34:03;9.70;;;4.70;;
77061;SDS011;65989;51.686;5.138;2023-08-01T00:36:28;11.73;;;4.87;;
77061;SDS011;65989;51.686;5.138;2023-08-01T00:38:53;13.87;;;5.10;;
77061;SDS011;65989;51.686;5.138;2023-08-01T00:41:19;14.13;;;4.50;;
77061;SDS011;65989;51.686;5.138;2023-08-01T00:43:44;13.80;;;4.63;;
77061;SDS011;65989;51.686;5.138;2023-08-01T00:46:09;12.97;;;4.73;;
77061;SDS011;65989;51.686;5.138;2023-08-01T00:48:35;17.67;;;4.80;;
77061;SDS011;65989;51.686;5.138;2023-08-01T00:51:03;12.30;;;4.80;;
77061;SDS011;65989;51.686;5.138;2023-08-01T00:53:28;20.77;;;5.28;;
77061;SDS011;65989;51.686;5.138;2023-08-01T00:55:54;13.38;;;4.80;;
77061;SDS011;65989;51.686;5.138;2023-08-01T00:58:20;17.17;;;5.50;;
77061;SDS011;65989;51.686;5.138;2023-08-01T01:00:46;20.03;;;5.33;;
77061;SDS011;65989;51.686;5.138;2023-08-01T01:03:11;17.73;;;5.15;;
77061;SDS011;65989;51.686;5.138;2023-08-01T01:05:37;19.07;;;5.67;;
77061;SDS011;65989;51.686;5.138;2023-08-01T01:08:03;19.42;;;5.03;;
77061;SDS011;65989;51.686;5.138;2023-08-01T01:10:29;11.47;;;4.80;;
77061;SDS011;65989;51.686;5.138;2023-08-01T01:12:55;16.42;;;5.32;;
77061;SDS011;65989;51.686;5.138;2023-08-01T01:15:20;19.77;;;5.00;;
77061;SDS011;65989;51.686;5.138;2023-08-01T01:17:45;19.90;;;5.23;;
77061;SDS011;65989;51.686;5.138;2023-08-01T01:20:11;21.43;;;5.50;;
77061;SDS011;65989;51.686;5.138;2023-08-01T01:22:37;19.52;;;5.20;;
77061;SDS011;65989;51.686;5.138;2023-08-01T01:25:03;18.02;;;4.88;;
77061;SDS011;65989;51.686;5.138;2023-08-01T01:27:28;13.73;;;4.77;;
77061;SDS011;65989;51.686;5.138;2023-08-01T01:29:54;19.98;;;5.13;;
77061;SDS011;65989;51.686;5.138;2023-08-01T01:32:20;17.63;;;5.20;;
77061;SDS011;65989;51.686;5.138;2023-08-01T01:34:46;16.65;;;5.35;;
77061;SDS011;65989;51.686;5.138;2023-08-01T01:37:11;22.80;;;5.33;;
77061;SDS011;65989;51.686;5.138;2023-08-01T01:39:36;19.63;;;4.37;;
77061;SDS011;65989;51.686;5.138;2023-08-01T01:42:02;16.33;;;4.50;;
77061;SDS011;65989;51.686;5.138;2023-08-01T01:44:27;18.43;;;4.70;;
77061;SDS011;65989;51.686;5.138;2023-08-01T01:46:53;16.65;;;4.93;;
77061;SDS011;65989;51.686;5.138;2023-08-01T01:49:18;19.47;;;4.90;;
77061;SDS011;65989;51.686;5.138;2023-08-01T01:51:43;27.73;;;5.30;;
77061;SDS011;65989;51.686;5.138;2023-08-01T01:54:08;18.90;;;4.93;;
77061;SDS011;65989;51.686;5.138;2023-08-01T01:56:34;21.93;;;5.17;;
77061;SDS011;65989;51.686;5.138;2023-08-01T01:59:00;17.85;;;5.88;;
77061;SDS011;65989;51.686;5.138;2023-08-01T02:01:26;24.60;;;5.63;;
77061;SDS011;65989;51.686;5.138;2023-08-01T02:03:51;18.37;;;5.70;;
77061;SDS011;65989;51.686;5.138;2023-08-01T02:06:16;19.50;;;5.27;;
77061;SDS011;65989;51.686;5.138;2023-08-01T02:08:42;20.97;;;5.37;;
77061;SDS011;65989;51.686;5.138;2023-08-01T02:11:07;16.88;;;5.80;;
77061;SDS011;65989;51.686;5.138;2023-08-01T02:13:32;28.80;;;5.63;;
77061;SDS011;65989;51.686;5.138;2023-08-01T02:15:58;25.30;;;6.20;;
77061;SDS011;65989;51.686;5.138;2023-08-01T02:18:23;18.70;;;5.63;;
77061;SDS011;65989;51.686;5.138;2023-08-01T02:20:48;18.37;;;5.83;;
77061;SDS011;65989;51.686;5.138;2023-08-01T02:23:14;19.67;;;6.53;;
77061;SDS011;65989;51.686;5.138;2023-08-01T02:25:39;19.77;;;6.27;;
77061;SDS011;65989;51.686;5.138;2023-08-01T02:28:05;23.13;;;6.77;;
77061;SDS011;65989;51.686;5.138;2023-08-01T02:30:30;22.53;;;6.43;;
77061;SDS011;65989;51.686;5.138;2023-08-01T02:32:55;27.20;;;7.40;;
77061;SDS011;65989;51.686;5.138;2023-08-01T02:35:21;19.05;;;6.30;;
77061;SDS011;65989;51.686;5.138;2023-08-01T02:37:46;28.57;;;7.03;;
77061;SDS011;65989;51.686;5.138;2023-08-01T02:40:12;23.50;;;7.07;;
77061;SDS011;65989;51.686;5.138;2023-08-01T02:42:37;20.83;;;6.70;;
77061;SDS011;65989;51.686;5.138;2023-08-01T02:45:02;30.13;;;7.50;;
77061;SDS011;65989;51.686;5.138;2023-08-01T02:47:28;25.95;;;6.93;;
77061;SDS011;65989;51.686;5.138;2023-08-01T02:49:53;25.67;;;7.00;;
77061;SDS011;65989;51.686;5.138;2023-08-01T02:52:18;24.20;;;7.00;;
77061;SDS011;65989;51.686;5.138;2023-08-01T02:54:44;23.17;;;6.50;;
77061;SDS011;65989;51.686;5.138;2023-08-01T02:57:09;18.27;;;6.67;;
77061;SDS011;65989;51.686;5.138;2023-08-01T02:59:34;24.40;;;6.80;;
77061;SDS011;65989;51.686;5.138;2023-08-01T03:01:59;18.93;;;6.30;;
77061;SDS011;65989;51.686;5.138;2023-08-01T03:04:25;20.30;;;6.40;;
77061;SDS011;65989;51.686;5.138;2023-08-01T03:06:50;20.93;;;6.13;;
77061;SDS011;65989;51.686;5.138;2023-08-01T03:09:15;22.50;;;6.37;;
77061;SDS011;65989;51.686;5.138;2023-08-01T03:11:41;22.97;;;6.73;;
77061;SDS011;65989;51.686;5.138;2023-08-01T03:14:06;26.73;;;7.00;;
77061;SDS011;65989;51.686;5.138;2023-08-01T03:16:31;18.23;;;6.57;;
77061;SDS011;65989;51.686;5.138;2023-08-01T03:18:57;26.10;;;6.80;;
77061;SDS011;65989;51.686;5.138;2023-08-01T03:21:22;15.90;;;5.90;;
77061;SDS011;65989;51.686;5.138;2023-08-01T03:23:47;19.97;;;6.40;;
77061;SDS011;65989;51.686;5.138;2023-08-01T03:26:13;19.80;;;6.33;;
77061;SDS011;65989;51.686;5.138;2023-08-01T03:28:40;23.40;;;6.70;;
77061;SDS011;65989;51.686;5.138;2023-08-01T03:31:05;20.97;;;6.57;;
77061;SDS011;65989;51.686;5.138;2023-08-01T03:33:32;17.53;;;7.10;;
77061;SDS011;65989;51.686;5.138;2023-08-01T03:35:57;22.17;;;8.02;;
77061;SDS011;65989;51.686;5.138;2023-08-01T03:38:22;20.90;;;7.73;;
77061;SDS011;65989;51.686;5.138;2023-08-01T03:40:48;24.27;;;8.57;;
77061;SDS011;65989;51.686;5.138;2023-08-01T03:43:13;21.90;;;8.17;;
77061;SDS011;65989;51.686;5.138;2023-08-01T03:45:39;25.60;;;9.27;;
77061;SDS011;65989;51.686;5.138;2023-08-01T03:48:04;22.17;;;8.67;;
77061;SDS011;65989;51.686;5.138;2023-08-01T03:50:29;22.53;;;9.23;;
77061;SDS011;65989;51.686;5.138;2023-08-01T03:52:54;24.07;;;9.00;;
77061;SDS011;65989;51.686;5.138;2023-08-01T03:55:20;21.50;;;9.63;;
77061;SDS011;65989;51.686;5.138;2023-08-01T03:57:48;22.50;;;9.43;;
77061;SDS011;65989;51.686;5.138;2023-08-01T04:00:13;26.52;;;9.57;;
77061;SDS011;65989;51.686;5.138;2023-08-01T04:02:39;26.77;;;9.93;;
77061;SDS011;65989;51.686;5.138;2023-08-01T04:05:05;27.13;;;10.43;;
77061;SDS011;65989;51.686;5.138;2023-08-01T04:07:30;25.38;;;10.23;;
77061;SDS011;65989;51.686;5.138;2023-08-01T04:09:55;25.93;;;10.50;;
77061;SDS011;65989;51.686;5.138;2023-08-01T04:12:23;27.20;;;10.87;;
77061;SDS011;65989;51.686;5.138;2023-08-01T04:14:48;29.17;;;10.13;;
77061;SDS011;65989;51.686;5.138;2023-08-01T04:17:13;23.67;;;10.47;;
77061;SDS011;65989;51.686;5.138;2023-08-01T04:19:38;27.77;;;10.57;;
77061;SDS011;65989;51.686;5.138;2023-08-01T04:22:04;25.13;;;10.63;;
77061;SDS011;65989;51.686;5.138;2023-08-01T04:24:29;30.20;;;10.57;;
77061;SDS011;65989;51.686;5.138;2023-08-01T04:26:56;25.10;;;10.38;;
77061;SDS011;65989;51.686;5.138;2023-08-01T04:29:21;25.93;;;10.33;;
77061;SDS011;65989;51.686;5.138;2023-08-01T04:31:46;26.80;;;10.87;;
77061;SDS011;65989;51.686;5.138;2023-08-01T04:34:11;23.53;;;10.03;;
77061;SDS011;65989;51.686;5.138;2023-08-01T04:36:36;27.27;;;10.47;;
77061;SDS011;65989;51.686;5.138;2023-08-01T04:39:02;29.40;;;10.07;;
77061;SDS011;65989;51.686;5.138;2023-08-01T04:41:27;27.47;;;10.20;;
77061;SDS011;65989;51.686;5.138;2023-08-01T04:43:53;29.00;;;10.30;;
77061;SDS011;65989;51.686;5.138;2023-08-01T04:46:18;23.60;;;9.53;;
77061;SDS011;65989;51.686;5.138;2023-08-01T04:48:43;21.73;;;9.50;;
77061;SDS011;65989;51.686;5.138;2023-08-01T04:51:08;26.57;;;10.20;;
77061;SDS011;65989;51.686;5.138;2023-08-01T04:53:34;22.57;;;9.47;;
77061;SDS011;65989;51.686;5.138;2023-08-01T04:55:59;26.70;;;9.37;;
77061;SDS011;65989;51.686;5.138;2023-08-01T04:58:24;30.83;;;9.57;;
77061;SDS011;65989;51.686;5.138;2023-08-01T05:00:49;23.43;;;8.83;;
77061;SDS011;65989;51.686;5.138;2023-08-01T05:03:14;18.00;;;9.40;;
77061;SDS011;65989;51.686;5.138;2023-08-01T05:05:40;24.30;;;8.80;;
77061;SDS011;65989;51.686;5.138;2023-08-01T05:08:05;21.97;;;8.40;;
77061;SDS011;65989;51.686;5.138;2023-08-01T05:10:30;21.30;;;7.97;;
77061;SDS011;65989;51.686;5.138;2023-08-01T05:12:55;21.00;;;7.90;;
77061;SDS011;65989;51.686;5.138;2023-08-01T05:15:21;23.90;;;8.10;;
77061;SDS011;65989;51.686;5.138;2023-08-01T05:17:46;14.37;;;6.90;;
77061;SDS011;65989;51.686;5.138;2023-08-01T05:20:11;20.03;;;7.80;;
77061;SDS011;65989;51.686;5.138;2023-08-01T05:22:37;22.53;;;7.47;;
77061;SDS011;65989;51.686;5.138;2023-08-01T05:25:02;23.00;;;8.10;;
77061;SDS011;65989;51.686;5.138;2023-08-01T05:27:28;22.48;;;8.73;;
77061;SDS011;65989;51.686;5.138;2023-08-01T05:29:54;26.37;;;8.63;;
77061;SDS011;65989;51.686;5.138;2023-08-01T05:32:19;26.33;;;8.83;;
77061;SDS011;65989;51.686;5.138;2023-08-01T05:34:44;22.47;;;9.17;;
77061;SDS011;65989;51.686;5.138;2023-08-01T05:37:09;27.60;;;9.43;;
77061;SDS011;65989;51.686;5.138;2023-08-01T05:39:35;25.43;;;9.27;;
77061;SDS011;65989;51.686;5.138;2023-08-01T05:42:00;22.60;;;8.57;;
77061;SDS011;65989;51.686;5.138;2023-08-01T05:44:25;23.43;;;8.17;;
77061;SDS011;65989;51.686;5.138;2023-08-01T05:46:50;19.67;;;8.90;;
77061;SDS011;65989;51.686;5.138;2023-08-01T05:49:16;28.83;;;8.33;;
77061;SDS011;65989;51.686;5.138;2023-08-01T05:51:41;20.13;;;7.57;;
77061;SDS011;65989;51.686;5.138;2023-08-01T05:54:06;17.90;;;7.27;;
77061;SDS011;65989;51.686;5.138;2023-08-01T05:56:31;22.03;;;7.57;;
77061;SDS011;65989;51.686;5.138;2023-08-01T05:58:57;23.93;;;7.90;;
77061;SDS011;65989;51.686;5.138;2023-08-01T06:01:22;22.77;;;9.20;;
77061;SDS011;65989;51.686;5.138;2023-08-01T06:03:47;21.70;;;8.60;;
77061;SDS011;65989;51.686;5.138;2023-08-01T06:06:12;19.17;;;8.07;;
77061;SDS011;65989;51.686;5.138;2023-08-01T06:08:38;22.13;;;9.10;;
77061;SDS011;65989;51.686;5.138;2023-08-01T06:11:03;16.20;;;8.10;;
77061;SDS011;65989;51.686;5.138;2023-08-01T06:13:28;16.53;;;8.73;;
77061;SDS011;65989;51.686;5.138;2023-08-01T06:15:53;20.33;;;6.73;;
77061;SDS011;65989;51.686;5.138;2023-08-01T06:18:19;18.33;;;6.10;;
77061;SDS011;65989;51.686;5.138;2023-08-01T06:20:44;15.20;;;5.63;;
77061;SDS011;65989;51.686;5.138;2023-08-01T06:23:09;15.73;;;5.30;;
77061;SDS011;65989;51.686;5.138;2023-08-01T06:25:34;16.53;;;5.23;;
77061;SDS011;65989;51.686;5.138;2023-08-01T06:27:59;12.37;;;5.57;;
77061;SDS011;65989;51.686;5.138;2023-08-01T06:30:25;13.50;;;4.85;;
77061;SDS011;65989;51.686;5.138;2023-08-01T06:32:50;11.33;;;4.60;;
77061;SDS011;65989;51.686;5.138;2023-08-01T06:35:16;14.17;;;5.30;;
77061;SDS011;65989;51.686;5.138;2023-08-01T06:37:41;12.43;;;4.30;;
77061;SDS011;65989;51.686;5.138;2023-08-01T06:40:06;11.40;;;4.60;;
77061;SDS011;65989;51.686;5.138;2023-08-01T06:42:33;10.95;;;4.65;;
77061;SDS011;65989;51.686;5.138;2023-08-01T06:44:58;13.90;;;4.37;;
77061;SDS011;65989;51.686;5.138;2023-08-01T06:47:23;15.83;;;4.70;;
77061;SDS011;65989;51.686;5.138;2023-08-01T06:49:48;13.33;;;5.03;;
77061;SDS011;65989;51.686;5.138;2023-08-01T06:52:14;13.10;;;4.50;;
77061;SDS011;65989;51.686;5.138;2023-08-01T06:54:39;11.43;;;4.57;;
77061;SDS011;65989;51.686;5.138;2023-08-01T06:57:05;13.30;;;4.93;;
77061;SDS011;65989;51.686;5.138;2023-08-01T06:59:30;12.52;;;4.90;;
77061;SDS011;65989;51.686;5.138;2023-08-01T07:01:56;13.07;;;4.30;;
77061;SDS011;65989;51.686;5.138;2023-08-01T07:04:21;13.63;;;4.70;;
77061;SDS011;65989;51.686;5.138;2023-08-01T07:06:46;16.43;;;4.87;;
77061;SDS011;65989;51.686;5.138;2023-08-01T07:09:11;18.57;;;5.07;;
77061;SDS011;65989;51.686;5.138;2023-08-01T07:11:37;14.63;;;4.43;;
77061;SDS011;65989;51.686;5.138;2023-08-01T07:14:02;13.23;;;5.10;;
77061;SDS011;65989;51.686;5.138;2023-08-01T07:16:27;11.03;;;4.67;;
77061;SDS011;65989;51.686;5.138;2023-08-01T07:18:52;13.87;;;4.70;;
77061;SDS011;65989;51.686;5.138;2023-08-01T07:21:18;15.33;;;4.97;;
77061;SDS011;65989;51.686;5.138;2023-08-01T07:23:43;13.83;;;4.87;;
77061;SDS011;65989;51.686;5.138;2023-08-01T07:26:09;13.23;;;5.10;;
77061;SDS011;65989;51.686;5.138;2023-08-01T07:28:34;13.05;;;4.55;;
77061;SDS011;65989;51.686;5.138;2023-08-01T07:31:04;14.73;;;4.97;;
77061;SDS011;65989;51.686;5.138;2023-08-01T07:33:30;15.70;;;4.40;;
77061;SDS011;65989;51.686;5.138;2023-08-01T07:35:55;14.03;;;4.63;;
77061;SDS011;65989;51.686;5.138;2023-08-01T07:38:21;15.07;;;4.33;;
77061;SDS011;65989;51.686;5.138;2023-08-01T07:40:46;15.07;;;4.43;;
77061;SDS011;65989;51.686;5.138;2023-08-01T07:43:11;11.67;;;4.47;;
77061;SDS011;65989;51.686;5.138;2023-08-01T07:45:37;10.48;;;4.07;;
77061;SDS011;65989;51.686;5.138;2023-08-01T07:48:03;14.73;;;4.53;;
77061;SDS011;65989;51.686;5.138;2023-08-01T07:50:28;15.10;;;4.67;;
77061;SDS011;65989;51.686;5.138;2023-08-01T07:52:53;17.23;;;4.40;;
77061;SDS011;65989;51.686;5.138;2023-08-01T07:55:19;13.27;;;4.60;;
77061;SDS011;65989;51.686;5.138;2023-08-01T07:57:45;13.83;;;4.60;;
77061;SDS011;65989;51.686;5.138;2023-08-01T08:00:11;16.63;;;4.23;;
77061;SDS011;65989;51.686;5.138;2023-08-01T08:02:36;14.63;;;4.93;;
77061;SDS011;65989;51.686;5.138;2023-08-01T08:05:01;12.83;;;4.20;;
77061;SDS011;65989;51.686;5.138;2023-08-01T08:07:27;15.63;;;4.67;;
77061;SDS011;65989;51.686;5.138;2023-08-01T08:09:52;11.37;;;4.13;;
77061;SDS011;65989;51.686;5.138;2023-08-01T08:12:19;11.98;;;4.10;;
77061;SDS011;65989;51.686;5.138;2023-08-01T08:14:45;13.07;;;4.43;;
77061;SDS011;65989;51.686;5.138;2023-08-01T08:17:10;23.57;;;6.00;;
77061;SDS011;65989;51.686;5.138;2023-08-01T08:19:35;13.43;;;4.40;;
77061;SDS011;65989;51.686;5.138;2023-08-01T08:22:01;13.97;;;3.63;;
77061;SDS011;65989;51.686;5.138;2023-08-01T08:24:26;13.97;;;3.87;;
77061;SDS011;65989;51.686;5.138;2023-08-01T08:26:51;17.23;;;4.33;;
77061;SDS011;65989;51.686;5.138;2023-08-01T08:29:16;12.27;;;4.90;;
77061;SDS011;65989;51.686;5.138;2023-08-01T08:31:42;16.10;;;4.83;;
77061;SDS011;65989;51.686;5.138;2023-08-01T08:34:07;14.73;;;5.00;;
77061;SDS011;65989;51.686;5.138;2023-08-01T08:36:32;13.97;;;4.00;;
77061;SDS011;65989;51.686;5.138;2023-08-01T08:38:57;14.90;;;4.60;;
77061;SDS011;65989;51.686;5.138;2023-08-01T08:41:23;14.00;;;4.05;;
77061;SDS011;65989;51.686;5.138;2023-08-01T08:43:50;10.18;;;3.35;;
77061;SDS011;65989;51.686;5.138;2023-08-01T08:46:20;14.13;;;3.60;;
77061;SDS011;65989;51.686;5.138;2023-08-01T08:48:46;14.40;;;2.87;;
77061;SDS011;65989;51.686;5.138;2023-08-01T08:51:12;14.07;;;3.70;;
77061;SDS011;65989;51.686;5.138;2023-08-01T08:53:37;12.93;;;3.60;;
77061;SDS011;65989;51.686;5.138;2023-08-01T08:56:05;14.02;;;3.50;;
77061;SDS011;65989;51.686;5.138;2023-08-01T08:58:33;13.93;;;4.07;;
77061;SDS011;65989;51.686;5.138;2023-08-01T09:01:01;11.87;;;3.40;;
77061;SDS011;65989;51.686;5.138;2023-08-01T09:03:27;11.27;;;3.42;;
77061;SDS011;65989;51.686;5.138;2023-08-01T09:05:59;10.85;;;3.47;;
77061;SDS011;65989;51.686;5.138;2023-08-01T09:08:25;12.13;;;3.65;;
77061;SDS011;65989;51.686;5.138;2023-08-01T09:10:52;16.33;;;3.50;;
77061;SDS011;65989;51.686;5.138;2023-08-01T09:13:17;13.55;;;4.00;;
77061;SDS011;65989;51.686;5.138;2023-08-01T09:15:42;16.27;;;3.17;;
77061;SDS011;65989;51.686;5.138;2023-08-01T09:18:08;11.52;;;3.38;;
77061;SDS011;65989;51.686;5.138;2023-08-01T09:20:44;11.00;;;3.30;;
77061;SDS011;65989;51.686;5.138;2023-08-01T09:23:09;10.40;;;3.25;;
77061;SDS011;65989;51.686;5.138;2023-08-01T09:25:36;14.13;;;3.43;;
77061;SDS011;65989;51.686;5.138;2023-08-01T09:28:01;14.20;;;3.30;;
77061;SDS011;65989;51.686;5.138;2023-08-01T09:30:27;11.80;;;2.87;;
77061;SDS011;65989;51.686;5.138;2023-08-01T09:32:56;13.85;;;3.20;;
77061;SDS011;65989;51.686;5.138;2023-08-01T09:35:21;10.83;;;3.00;;
77061;SDS011;65989;51.686;5.138;2023-08-01T09:37:47;10.45;;;2.70;;
77061;SDS011;65989;51.686;5.138;2023-08-01T09:40:13;8.97;;;2.63;;
77061;SDS011;65989;51.686;5.138;2023-08-01T09:42:42;8.23;;;2.78;;
77061;SDS011;65989;51.686;5.138;2023-08-01T09:45:14;9.85;;;3.17;;
77061;SDS011;65989;51.686;5.138;2023-08-01T09:47:40;10.43;;;2.73;;
77061;SDS011;65989;51.686;5.138;2023-08-01T09:50:05;10.55;;;2.80;;
77061;SDS011;65989;51.686;5.138;2023-08-01T09:52:31;7.17;;;2.47;;
77061;SDS011;65989;51.686;5.138;2023-08-01T09:54:56;10.53;;;2.70;;
77061;SDS011;65989;51.686;5.138;2023-08-01T09:57:21;11.77;;;2.80;;
77061;SDS011;65989;51.686;5.138;2023-08-01T09:59:47;10.40;;;2.97;;
77061;SDS011;65989;51.686;5.138;2023-08-01T10:02:14;12.53;;;3.20;;
77061;SDS011;65989;51.686;5.138;2023-08-01T10:04:40;8.10;;;2.65;;
77061;SDS011;65989;51.686;5.138;2023-08-01T10:07:10;10.37;;;2.70;;
77061;SDS011;65989;51.686;5.138;2023-08-01T10:09:36;11.40;;;3.13;;
77061;SDS011;65989;51.686;5.138;2023-08-01T10:12:02;13.60;;;2.65;;
77061;SDS011;65989;51.686;5.138;2023-08-01T10:14:29;11.73;;;2.87;;
77061;SDS011;65989;51.686;5.138;2023-08-01T10:16:56;10.60;;;2.80;;
77061;SDS011;65989;51.686;5.138;2023-08-01T10:19:22;12.80;;;2.97;;
77061;SDS011;65989;51.686;5.138;2023-08-01T10:21:47;14.27;;;3.20;;
77061;SDS011;65989;51.686;5.138;2023-08-01T10:24:13;11.03;;;3.30;;
77061;SDS011;65989;51.686;5.138;2023-08-01T10:26:39;8.70;;;2.60;;
77061;SDS011;65989;51.686;5.138;2023-08-01T10:29:04;11.93;;;3.20;;
77061;SDS011;65989;51.686;5.138;2023-08-01T10:31:30;13.45;;;2.95;;
77061;SDS011;65989;51.686;5.138;2023-08-01T10:34:05;12.13;;;2.70;;
77061;SDS011;65989;51.686;5.138;2023-08-01T10:36:31;11.43;;;2.90;;
77061;SDS011;65989;51.686;5.138;2023-08-01T10:38:58;11.23;;;2.83;;
77061;SDS011;65989;51.686;5.138;2023-08-01T10:41:27;11.63;;;2.95;;
77061;SDS011;65989;51.686;5.138;2023-08-01T10:44:09;14.25;;;2.85;;
77061;SDS011;65989;51.686;5.138;2023-08-01T10:46:51;7.30;;;2.80;;
77061;SDS011;65989;51.686;5.138;2023-08-01T10:49:17;10.43;;;2.40;;
77061;SDS011;65989;51.686;5.138;2023-08-01T10:51:43;8.68;;;2.50;;
77061;SDS011;65989;51.686;5.138;2023-08-01T10:57:05;11.02;;;2.55;;
77061;SDS011;65989;51.686;5.138;2023-08-01T10:59:31;10.80;;;2.70;;
77061;SDS011;65989;51.686;5.138;2023-08-01T11:01:57;13.40;;;2.72;;
77061;SDS011;65989;51.686;5.138;2023-08-01T11:04:23;9.93;;;2.70;;
77061;SDS011;65989;51.686;5.138;2023-08-01T11:06:49;6.37;;;2.23;;
77061;SDS011;65989;51.686;5.138;2023-08-01T11:09:19;11.65;;;2.75;;
77061;SDS011;65989;51.686;5.138;2023-08-01T11:11:45;11.30;;;2.42;;
77061;SDS011;65989;51.686;5.138;2023-08-01T11:14:11;10.43;;;2.30;;
77061;SDS011;65989;51.686;5.138;2023-08-01T11:16:37;13.77;;;2.67;;
77061;SDS011;65989;51.686;5.138;2023-08-01T11:19:02;8.18;;;2.30;;
77061;SDS011;65989;51.686;5.138;2023-08-01T11:21:27;12.40;;;2.73;;
77061;SDS011;65989;51.686;5.138;2023-08-01T11:23:53;15.23;;;2.93;;
77061;SDS011;65989;51.686;5.138;2023-08-01T11:26:18;12.83;;;2.70;;
77061;SDS011;65989;51.686;5.138;2023-08-01T11:28:44;8.97;;;2.63;;
77061;SDS011;65989;51.686;5.138;2023-08-01T11:31:12;8.67;;;2.97;;
77061;SDS011;65989;51.686;5.138;2023-08-01T11:33:38;11.32;;;2.53;;
77061;SDS011;65989;51.686;5.138;2023-08-01T11:36:03;11.37;;;2.77;;
77061;SDS011;65989;51.686;5.138;2023-08-01T11:38:30;8.02;;;2.45;;
77061;SDS011;65989;51.686;5.138;2023-08-01T11:40:56;8.57;;;2.63;;
77061;SDS011;65989;51.686;5.138;2023-08-01T11:43:21;8.05;;;2.58;;
77061;SDS011;65989;51.686;5.138;2023-08-01T11:48:15;9.80;;;2.70;;
77061;SDS011;65989;51.686;5.138;2023-08-01T11:50:41;9.83;;;2.50;;
77061;SDS011;65989;51.686;5.138;2023-08-01T11:53:06;9.98;;;2.60;;
77061;SDS011;65989;51.686;5.138;2023-08-01T11:55:44;11.55;;;2.75;;
77061;SDS011;65989;51.686;5.138;2023-08-01T11:58:10;10.10;;;2.60;;
77061;SDS011;65989;51.686;5.138;2023-08-01T12:00:35;11.10;;;2.90;;
77061;SDS011;65989;51.686;5.138;2023-08-01T12:03:04;7.70;;;2.47;;
77061;SDS011;65989;51.686;5.138;2023-08-01T12:05:29;10.87;;;2.90;;
77061;SDS011;65989;51.686;5.138;2023-08-01T12:07:55;10.03;;;2.73;;
77061;SDS011;65989;51.686;5.138;2023-08-01T12:10:20;11.68;;;3.17;;
77061;SDS011;65989;51.686;5.138;2023-08-01T12:12:46;8.87;;;2.67;;
77061;SDS011;65989;51.686;5.138;2023-08-01T12:15:12;13.30;;;2.70;;
77061;SDS011;65989;51.686;5.138;2023-08-01T12:17:41;9.23;;;2.70;;
77061;SDS011;65989;51.686;5.138;2023-08-01T12:20:07;11.52;;;2.80;;
77061;SDS011;65989;51.686;5.138;2023-08-01T12:22:32;9.43;;;2.83;;
77061;SDS011;65989;51.686;5.138;2023-08-01T12:25:00;9.82;;;2.88;;
77061;SDS011;65989;51.686;5.138;2023-08-01T12:27:25;12.00;;;2.93;;
77061;SDS011;65989;51.686;5.138;2023-08-01T12:29:50;10.63;;;2.70;;
77061;SDS011;65989;51.686;5.138;2023-08-01T12:32:15;11.10;;;2.90;;
77061;SDS011;65989;51.686;5.138;2023-08-01T12:34:41;8.97;;;2.70;;
77061;SDS011;65989;51.686;5.138;2023-08-01T12:37:06;9.33;;;2.90;;
77061;SDS011;65989;51.686;5.138;2023-08-01T12:39:31;7.77;;;2.50;;
77061;SDS011;65989;51.686;5.138;2023-08-01T12:41:57;9.03;;;3.03;;
77061;SDS011;65989;51.686;5.138;2023-08-01T12:44:22;12.23;;;4.13;;
77061;SDS011;65989;51.686;5.138;2023-08-01T12:46:47;11.70;;;3.60;;
77061;SDS011;65989;51.686;5.138;2023-08-01T12:49:12;8.47;;;2.57;;
77061;SDS011;65989;51.686;5.138;2023-08-01T12:51:38;14.47;;;3.67;;
77061;SDS011;65989;51.686;5.138;2023-08-01T12:54:03;14.37;;;4.00;;
77061;SDS011;65989;51.686;5.138;2023-08-01T12:56:28;13.27;;;2.83;;
77061;SDS011;65989;51.686;5.138;2023-08-01T12:58:53;10.63;;;2.93;;
77061;SDS011;65989;51.686;5.138;2023-08-01T13:01:19;9.83;;;2.63;;
77061;SDS011;65989;51.686;5.138;2023-08-01T13:03:44;11.10;;;2.90;;
77061;SDS011;65989;51.686;5.138;2023-08-01T13:06:12;16.77;;;3.37;;
77061;SDS011;65989;51.686;5.138;2023-08-01T13:08:38;10.88;;;2.78;;
77061;SDS011;65989;51.686;5.138;2023-08-01T13:11:09;11.73;;;2.87;;
77061;SDS011;65989;51.686;5.138;2023-08-01T13:13:34;9.18;;;2.53;;
77061;SDS011;65989;51.686;5.138;2023-08-01T13:15:59;6.53;;;2.53;;
77061;SDS011;65989;51.686;5.138;2023-08-01T13:18:25;12.60;;;2.70;;
77061;SDS011;65989;51.686;5.138;2023-08-01T13:20:50;7.13;;;2.50;;
77061;SDS011;65989;51.686;5.138;2023-08-01T13:23:15;9.73;;;2.37;;
77061;SDS011;65989;51.686;5.138;2023-08-01T13:25:40;9.00;;;2.17;;
77061;SDS011;65989;51.686;5.138;2023-08-01T13:28:06;8.33;;;2.10;;
77061;SDS011;65989;51.686;5.138;2023-08-01T13:30:31;9.20;;;2.03;;
77061;SDS011;65989;51.686;5.138;2023-08-01T13:32:56;9.27;;;2.80;;
77061;SDS011;65989;51.686;5.138;2023-08-01T13:35:21;7.50;;;2.23;;
77061;SDS011;65989;51.686;5.138;2023-08-01T13:37:47;7.82;;;2.33;;
77061;SDS011;65989;51.686;5.138;2023-08-01T13:40:13;10.60;;;2.43;;
77061;SDS011;65989;51.686;5.138;2023-08-01T13:42:40;6.57;;;2.00;;
77061;SDS011;65989;51.686;5.138;2023-08-01T13:45:05;11.82;;;2.22;;
77061;SDS011;65989;51.686;5.138;2023-08-01T13:47:30;12.43;;;2.50;;
77061;SDS011;65989;51.686;5.138;2023-08-01T13:49:56;5.57;;;1.83;;
77061;SDS011;65989;51.686;5.138;2023-08-01T13:52:22;7.63;;;2.10;;
77061;SDS011;65989;51.686;5.138;2023-08-01T13:54:47;9.85;;;2.15;;
77061;SDS011;65989;51.686;5.138;2023-08-01T13:57:12;10.43;;;2.80;;
77061;SDS011;65989;51.686;5.138;2023-08-01T13:59:37;6.90;;;2.10;;
77061;SDS011;65989;51.686;5.138;2023-08-01T14:02:03;7.53;;;2.20;;
77061;SDS011;65989;51.686;5.138;2023-08-01T14:04:28;12.47;;;2.40;;
77061;SDS011;65989;51.686;5.138;2023-08-01T14:06:53;9.10;;;2.13;;
77061;SDS011;65989;51.686;5.138;2023-08-01T14:09:20;9.70;;;2.20;;
77061;SDS011;65989;51.686;5.138;2023-08-01T14:11:45;5.10;;;1.90;;
77061;SDS011;65989;51.686;5.138;2023-08-01T14:14:10;9.23;;;2.20;;
77061;SDS011;65989;51.686;5.138;2023-08-01T14:16:36;6.33;;;2.17;;
77061;SDS011;65989;51.686;5.138;2023-08-01T14:19:01;6.87;;;2.30;;
77061;SDS011;65989;51.686;5.138;2023-08-01T14:21:26;7.97;;;2.17;;
77061;SDS011;65989;51.686;5.138;2023-08-01T14:23:51;8.93;;;1.87;;
77061;SDS011;65989;51.686;5.138;2023-08-01T14:26:17;7.77;;;2.10;;
77061;SDS011;65989;51.686;5.138;2023-08-01T14:28:42;9.27;;;1.93;;
77061;SDS011;65989;51.686;5.138;2023-08-01T14:31:07;7.17;;;1.83;;